createdAt,value
2022-11-23T00:00:03.623Z,0.8
2022-11-23T00:06:23.620Z,0.8
2022-11-23T00:12:46.485Z,0.9
2022-11-23T00:19:06.664Z,0.9
2022-11-23T00:25:29.555Z,1
2022-11-23T00:31:49.525Z,1
2022-11-23T00:38:12.564Z,0.3
2022-11-23T00:44:32.529Z,0.3
2022-11-23T00:50:55.555Z,0.5
2022-11-23T00:57:15.564Z,0.5
2022-11-23T01:03:38.549Z,1.7
2022-11-23T01:09:58.513Z,1.7
2022-11-23T01:16:24.004Z,0.3
2022-11-23T01:22:41.475Z,0.3
2022-11-23T01:29:04.559Z,0.5
2022-11-23T01:35:24.503Z,0.5
2022-11-23T01:41:47.556Z,0.6
2022-11-23T01:48:07.516Z,0.6
2022-11-23T01:54:30.562Z,0.1
2022-11-23T02:00:50.524Z,0.1
2022-11-23T02:07:13.647Z,1.4
2022-11-23T02:13:33.566Z,1.4
2022-11-23T02:19:56.528Z,0.4
2022-11-23T02:26:16.505Z,0.4
2022-11-23T02:32:39.545Z,0.7
2022-11-23T02:38:59.489Z,0.7
2022-11-23T02:45:22.552Z,3.7
2022-11-23T02:51:42.562Z,3.7
2022-11-23T02:58:05.551Z,0.2
2022-11-23T03:04:27.735Z,0.2
2022-11-23T03:10:48.572Z,0.5
2022-11-23T03:17:08.645Z,0.5
2022-11-23T03:23:31.547Z,0.6
2022-11-23T03:29:51.561Z,0.6
2022-11-23T03:36:14.519Z,1.4
2022-11-23T03:42:34.541Z,1.4
2022-11-23T03:48:57.599Z,0.1
2022-11-23T03:55:17.481Z,0.1
2022-11-23T04:01:40.584Z,0.7
2022-11-23T04:08:00.542Z,0.7
2022-11-23T04:14:23.578Z,0.6
2022-11-23T04:20:43.496Z,0.6
2022-11-23T04:27:06.619Z,1.2
2022-11-23T04:44:08.075Z,0.9
2022-11-23T04:50:29.998Z,1.4
2022-11-23T04:56:49.499Z,1.4
2022-11-23T05:03:12.588Z,1.4
2022-11-23T05:09:32.779Z,1.4
2022-11-23T05:15:55.533Z,1.2
2022-11-23T05:22:15.524Z,1.2
2022-11-23T05:28:40.505Z,0.4
2022-11-23T05:34:58.579Z,0.4
2022-11-23T05:41:21.518Z,0.3
2022-11-23T05:47:41.501Z,0.3
2022-11-23T05:54:04.562Z,0.2
2022-11-23T06:00:24.537Z,0.2
2022-11-23T06:06:47.518Z,0.6
2022-11-23T06:13:07.491Z,0.6
2022-11-23T06:19:30.968Z,0.2
2022-11-23T06:25:50.512Z,0.2
2022-11-23T06:32:13.477Z,0.9
2022-11-23T06:38:33.553Z,0.9
2022-11-23T06:44:56.496Z,0.6
2022-11-23T06:51:16.538Z,0.6
2022-11-23T06:57:39.542Z,0.4
2022-11-23T07:03:59.526Z,0.4
2022-11-23T07:10:22.532Z,0.5
2022-11-23T07:16:42.582Z,0.5
2022-11-23T07:23:05.567Z,0.7
2022-11-23T07:29:25.507Z,0.7
2022-11-23T07:35:48.585Z,0.7
2022-11-23T07:42:31.441Z,0.7
2022-11-23T07:48:36.098Z,0.5
2022-11-23T07:54:51.555Z,0.5
2022-11-23T08:01:14.552Z,0.6
2022-11-23T08:07:34.565Z,0.6
2022-11-23T08:13:57.615Z,1
2022-11-23T08:20:17.487Z,1
2022-11-23T08:26:40.566Z,0.8
2022-11-23T08:33:00.566Z,0.8
2022-11-23T08:39:23.514Z,1.2
2022-11-23T08:45:43.600Z,1.2
2022-11-23T08:52:06.509Z,1.1
2022-11-23T08:58:26.513Z,1.1
2022-11-23T09:04:49.513Z,1.1
2022-11-23T09:11:09.501Z,1.1
2022-11-23T09:17:32.549Z,1.2
2022-11-23T09:23:52.528Z,1.2
2022-11-23T09:30:15.607Z,1.6
2022-11-23T09:36:35.509Z,1.6
2022-11-23T09:42:58.525Z,0.9
2022-11-23T09:49:18.584Z,0.9
2022-11-23T10:11:48.483Z,1.6
2022-11-23T10:18:08.467Z,1.6
2022-11-23T10:24:31.808Z,1.9
2022-11-23T10:30:51.598Z,1.9
2022-11-23T10:37:14.506Z,0.9
2022-11-23T10:43:34.533Z,0.9
2022-11-23T10:49:57.614Z,1.1
2022-11-23T10:56:17.466Z,1.1
2022-11-23T11:02:40.598Z,2.8
2022-11-23T11:09:03.367Z,2.8
2022-11-23T11:15:23.567Z,0.9
2022-11-23T11:21:43.493Z,0.9
2022-11-23T11:28:06.534Z,0.9
2022-11-23T11:34:26.548Z,0.9
2022-11-23T11:40:49.499Z,1.5
2022-11-23T11:47:09.619Z,1.5
2022-11-23T11:53:32.491Z,0.9
2022-11-23T11:59:52.494Z,0.9
2022-11-23T12:06:15.683Z,0.7
2022-11-23T12:12:35.475Z,0.7
2022-11-23T12:18:58.528Z,1.5
2022-11-23T12:25:18.537Z,1.5
2022-11-23T12:31:41.502Z,0.4
2022-11-23T12:38:01.530Z,0.4
2022-11-23T12:44:24.735Z,1.9
2022-11-23T12:50:44.765Z,1.9
2022-11-23T12:57:08.714Z,0.6
2022-11-23T13:03:28.782Z,0.6
2022-11-23T13:09:51.581Z,0.6
2022-11-23T13:16:11.592Z,0.6
2022-11-23T13:22:34.710Z,0.7
2022-11-23T13:28:54.532Z,0.7
2022-11-23T13:35:17.584Z,0.7
2022-11-23T13:41:37.553Z,0.7
2022-11-23T13:48:00.470Z,0.6
2022-11-23T13:54:20.535Z,0.6
2022-11-23T14:00:43.625Z,1.7
2022-11-23T14:07:03.547Z,1.7
2022-11-23T14:13:26.523Z,2.1
2022-11-23T14:19:46.540Z,2.1
2022-11-23T14:26:09.542Z,0.1
2022-11-23T14:32:29.491Z,0.1
2022-11-23T14:38:52.615Z,1.5
2022-11-23T14:45:12.561Z,1.5
2022-11-23T14:51:35.493Z,0.4
2022-11-23T14:57:55.643Z,0.4
2022-11-23T15:04:18.715Z,1.1
2022-11-23T15:10:38.589Z,1.1
2022-11-23T15:17:01.789Z,0.6
2022-11-23T15:40:24.532Z,0.6
2022-11-23T15:46:44.482Z,0.6
2022-11-23T15:53:07.553Z,1.2
2022-11-23T15:59:27.511Z,1.2
2022-11-23T16:05:51.768Z,0.4
2022-11-23T16:12:10.547Z,0.4
2022-11-23T16:18:33.779Z,0.9
2022-11-23T16:24:53.597Z,0.9
2022-11-23T16:31:16.597Z,1.6
2022-11-23T16:37:36.837Z,1.6
2022-11-23T16:43:59.567Z,1
2022-11-23T16:50:19.617Z,1
2022-11-23T16:56:42.578Z,0.6
2022-11-23T17:03:02.749Z,0.6
2022-11-23T17:09:25.632Z,0.7
2022-11-23T17:15:48.029Z,0.7
2022-11-23T17:22:10.999Z,0.6
2022-11-23T17:28:30.567Z,0.6
2022-11-23T17:34:53.529Z,0.5
2022-11-23T17:41:13.581Z,0.5
2022-11-23T17:47:36.498Z,1
2022-11-23T17:53:56.686Z,1
2022-11-23T18:00:19.634Z,1.5
2022-11-23T18:06:39.516Z,1.5
2022-11-23T18:13:02.629Z,1.9
2022-11-23T18:19:22.517Z,1.9
2022-11-23T18:25:45.513Z,2.4
2022-11-23T18:32:06.075Z,2.4
2022-11-23T18:38:28.551Z,2.7
2022-11-23T18:44:48.623Z,2.7
2022-11-23T18:51:11.907Z,2.3
2022-11-23T18:57:31.501Z,2.3
2022-11-23T19:03:54.586Z,0.7
2022-11-23T19:10:14.573Z,0.7
2022-11-23T19:16:37.594Z,1.8
2022-11-23T19:22:57.504Z,1.8
2022-11-23T19:29:23.714Z,1.9
2022-11-23T19:35:40.573Z,1.9
2022-11-23T19:42:03.531Z,1.7
2022-11-23T19:48:23.568Z,1.7
2022-11-23T19:54:47.001Z,2.2
2022-11-23T20:01:06.882Z,2.2
2022-11-23T20:07:29.569Z,1.3
2022-11-23T20:13:49.659Z,1.3
2022-11-23T20:20:12.574Z,1.1
2022-11-23T20:26:32.599Z,1.1
2022-11-23T20:42:07.429Z,1.2
2022-11-23T20:48:27.504Z,1.2
2022-11-23T20:54:50.524Z,1.2
2022-11-23T21:01:10.650Z,1.2
2022-11-23T21:07:33.983Z,1.1
2022-11-23T21:13:53.823Z,1.1
2022-11-23T21:20:17.285Z,2
2022-11-23T21:26:37.648Z,2
2022-11-23T21:33:00.608Z,1.4
2022-11-23T21:39:20.599Z,1.4
2022-11-23T21:45:43.583Z,1.7
2022-11-23T21:52:03.532Z,1.7
2022-11-23T21:58:26.599Z,1.4
2022-11-23T22:04:46.588Z,1.4
2022-11-23T22:11:09.521Z,2.2
2022-11-23T22:17:29.589Z,2.2
2022-11-23T22:23:52.535Z,3.8
2022-11-23T22:30:12.532Z,3.8
2022-11-23T22:36:35.586Z,3
2022-11-23T22:42:55.531Z,3
2022-11-23T22:49:18.616Z,1.8
2022-11-23T22:55:38.544Z,1.8
2022-11-23T23:02:01.503Z,2.4
2022-11-23T23:24:58.478Z,4.9
2022-11-23T23:31:18.814Z,4.9
2022-11-23T23:37:41.519Z,4.9
2022-11-23T23:44:01.680Z,4.9
2022-11-23T23:50:24.494Z,3.3
2022-11-23T23:56:44.649Z,3.3
